Time;durP1;ratioP1;P1;durP2;ratioP2;P2;SDS_P1;SDS_P2;PMS_P1;PMS_P2;Temp;Humidity;BMP_temperature;BMP_pressure;BME280_temperature;BME280_humidity;BME280_pressure;Samples;Min_cycle;Max_cycle;Signal;HPM_P1;HPM_P2
2022/11/13 00:02:35;;;;;;;5.97;2.33;;;;;;;11.33;71.84;101709.04;1751279;80;21485;-63
2022/11/13 00:05:19;;;;;;;6.08;2.67;;;;;;;11.23;72.11;101709.23;1755227;80;21081;-63
2022/11/13 00:08:05;;;;;;;5.87;2.90;;;;;;;11.21;72.05;101707.63;1757877;80;21142;-63
2022/11/13 00:10:50;;;;;;;5.65;2.40;;;;;;;11.21;71.96;101707.63;1751008;80;21133;-64
2022/11/13 00:13:35;;;;;;;4.30;2.00;;;;;;;11.24;71.79;101701.69;1755889;80;21101;-64
2022/11/13 00:16:20;;;;;;;4.70;2.02;;;;;;;11.20;71.91;101695.41;1759938;80;21405;-64
2022/11/13 00:19:05;;;;;;;5.42;2.10;;;;;;;11.17;71.59;101696.91;1759892;80;21657;-63
2022/11/13 00:21:50;;;;;;;4.08;1.87;;;;;;;11.11;71.44;101689.77;1756501;79;21119;-64
2022/11/13 00:24:35;;;;;;;4.37;2.05;;;;;;;11.17;71.08;101682.42;1718279;82;21066;-63
2022/11/13 00:27:21;;;;;;;5.53;2.00;;;;;;;11.21;70.86;101690.02;1745787;80;21063;-64
2022/11/13 00:30:08;;;;;;;4.33;1.60;;;;;;;11.21;70.64;101695.29;1760930;80;21023;-63
2022/11/13 00:32:52;;;;;;;4.67;1.60;;;;;;;11.06;70.75;101693.16;1750551;80;21059;-64
2022/11/13 00:35:38;;;;;;;5.12;1.77;;;;;;;11.00;71.02;101689.56;1759835;80;21278;-63
2022/11/13 00:38:23;;;;;;;6.50;2.12;;;;;;;11.01;71.03;101689.95;1761513;80;22309;-64
2022/11/13 00:41:14;;;;;;;5.53;2.40;;;;;;;10.97;71.26;101688.43;1693329;81;67986;-59
2022/11/13 00:43:59;;;;;;;5.35;2.10;;;;;;;10.90;71.59;101682.69;1694879;84;21079;-58
2022/11/13 00:46:44;;;;;;;5.87;2.20;;;;;;;10.84;72.02;101676.95;1699263;84;21067;-58
2022/11/13 00:49:31;;;;;;;6.45;2.40;;;;;;;10.84;72.11;101671.20;1682619;84;21077;-58
2022/11/13 00:52:15;;;;;;;4.83;2.15;;;;;;;10.86;72.24;101671.98;1704132;84;21069;-57
2022/11/13 00:55:03;;;;;;;6.30;2.47;;;;;;;10.86;72.45;101671.98;1681081;84;21006;-58
2022/11/13 00:57:49;;;;;;;6.75;2.55;;;;;;;10.82;72.84;101673.56;1697178;84;21104;-58
2022/11/13 01:00:35;;;;;;;;;;;;;;;10.76;73.22;101669.53;1686504;84;21033;-58
2022/11/13 01:03:20;;;;;;;6.80;2.50;;;;;;;10.73;73.48;101663.97;1681713;82;21141;-56
2022/11/13 01:06:17;;;;;;;7.22;2.75;;;;;;;10.65;74.12;101670.16;1685850;84;21124;-58
2022/11/13 01:09:02;;;;;;;6.90;2.90;;;;;;;10.62;74.62;101665.55;1688060;84;21100;-57
2022/11/13 01:11:48;;;;;;;8.33;2.80;;;;;;;10.55;74.76;101664.59;1706013;84;21136;-55
2022/11/13 01:14:33;;;;;;;5.15;2.55;;;;;;;10.56;74.83;101664.98;1681901;84;21100;-57
2022/11/13 01:17:18;;;;;;;6.53;2.47;;;;;;;10.59;74.74;101659.53;1696251;84;21124;-58
2022/11/13 01:20:05;;;;;;;5.20;2.10;;;;;;;10.62;74.80;101662.44;1692863;84;21064;-58
2022/11/13 01:22:50;;;;;;;4.42;2.22;;;;;;;10.58;74.78;101670.16;1683086;84;21080;-58
2022/11/13 01:25:35;;;;;;;4.78;2.05;;;;;;;10.52;74.91;101659.98;1691958;84;21072;-58
2022/11/13 01:28:21;;;;;;;4.65;1.87;;;;;;;10.51;74.85;101661.77;1694584;84;21099;-58
2022/11/13 01:31:07;;;;;;;7.20;1.95;;;;;;;10.54;74.73;101658.97;1683961;84;21142;-56
2022/11/13 01:33:52;;;;;;;5.58;1.80;;;;;;;10.56;74.69;101662.34;1687435;84;21143;-58
2022/11/13 01:36:39;;;;;;;6.53;2.05;;;;;;;10.52;74.63;101662.61;1691434;84;21100;-57
2022/11/13 01:39:24;;;;;;;5.15;1.85;;;;;;;10.49;74.76;101662.34;1689205;84;21079;-58
2022/11/13 01:42:09;;;;;;;4.47;1.73;;;;;;;10.51;74.55;101668.36;1707062;84;21076;-57
2022/11/13 01:44:58;;;;;;;5.12;2.15;;;;;;;10.55;74.52;101671.17;1688675;84;21789;-58
2022/11/13 01:47:43;;;;;;;4.53;1.87;;;;;;;10.53;74.60;101669.10;1701922;84;21135;-58
2022/11/13 01:50:30;;;;;;;3.60;1.20;;;;;;;10.49;74.76;101658.39;1682146;84;21065;-57
2022/11/13 01:53:15;;;;;;;3.98;1.50;;;;;;;10.52;74.69;101658.22;1697919;83;21115;-57
2022/11/13 01:56:00;;;;;;;4.85;1.57;;;;;;;10.57;74.61;101655.29;1699384;83;23022;-57
2022/11/13 01:58:52;;;;;;;5.65;1.70;;;;;;;10.56;74.49;101647.03;1709139;83;22518;-58
2022/11/13 02:01:38;;;;;;;4.75;1.70;;;;;;;10.47;74.75;101642.30;1705745;83;21022;-58
2022/11/13 02:04:24;;;;;;;4.58;1.70;;;;;;;10.39;75.15;101646.72;1706514;83;21050;-57
2022/11/13 02:07:12;;;;;;;4.12;1.47;;;;;;;10.44;75.06;101642.48;1709162;82;21575;-58
2022/11/13 02:09:59;;;;;;;4.53;1.90;;;;;;;10.49;74.86;101643.92;1693471;82;21066;-58
2022/11/13 02:12:49;;;;;;;6.95;1.90;;;;;;;10.45;74.88;101640.23;1693181;84;21558;-59
2022/11/13 02:15:36;;;;;;;6.55;1.80;;;;;;;10.41;75.01;101639.58;1701431;83;21557;-58
2022/11/13 02:18:22;;;;;;;5.35;1.95;;;;;;;10.43;75.03;101645.59;1686607;84;21642;-56
2022/11/13 02:21:29;;;;;;;7.80;2.10;;;;;;;10.49;74.76;101642.61;1698551;84;21072;-58
2022/11/13 02:24:29;;;;;;;4.30;1.93;;;;;;;10.52;74.81;101647.69;1688492;84;21096;-56
2022/11/13 02:27:25;;;;;;;4.45;2.10;;;;;;;10.51;74.71;101648.62;1680631;84;21140;-58
2022/11/13 02:30:23;;;;;;;4.85;1.90;;;;;;;10.40;74.82;101641.34;1676877;84;21158;-57
2022/11/13 02:33:29;;;;;;;3.98;1.62;;;;;;;10.42;74.72;101645.20;1693362;84;21546;-58
2022/11/13 02:36:16;;;;;;;4.42;1.80;;;;;;;10.47;74.56;101647.56;1690406;84;21602;-57
2022/11/13 02:39:10;;;;;;;4.22;1.70;;;;;;;10.44;74.67;101646.42;1684415;84;21093;-56
2022/11/13 02:41:55;;;;;;;6.30;2.10;;;;;;;10.37;74.78;101653.39;1683764;84;21138;-57
2022/11/13 02:44:40;;;;;;;4.78;1.77;;;;;;;10.35;74.97;101653.09;1730616;81;20998;-55
2022/11/13 02:47:26;;;;;;;4.43;1.50;;;;;;;10.38;74.88;101643.22;1752212;81;21030;-56
2022/11/13 02:50:11;;;;;;;4.97;1.90;;;;;;;10.40;74.87;101647.08;1733078;81;20971;-58
2022/11/13 02:52:56;;;;;;;5.50;1.92;;;;;;;10.38;74.97;101648.48;1727105;81;21567;-58
2022/11/13 02:55:41;;;;;;;4.08;1.60;;;;;;;10.36;74.88;101644.27;1726987;81;22201;-58
2022/11/13 02:58:27;;;;;;;5.37;1.60;;;;;;;10.39;74.83;101644.93;1740172;81;21567;-58
2022/11/13 03:01:12;;;;;;;4.78;1.32;;;;;;;10.46;74.58;101651.99;1727797;81;21478;-58
2022/11/13 03:03:58;;;;;;;4.25;1.52;;;;;;;10.47;74.41;101648.41;1726875;81;21164;-59
2022/11/13 03:06:43;;;;;;;3.37;1.22;;;;;;;10.45;74.42;101645.02;1736306;81;21049;-57
2022/11/13 03:09:30;;;;;;;4.50;1.67;;;;;;;10.44;74.43;101650.37;1731294;81;21691;-57
2022/11/13 03:12:15;;;;;;;4.30;1.45;;;;;;;10.40;74.36;101641.81;1727941;81;21540;-57
2022/11/13 03:15:00;;;;;;;3.47;1.25;;;;;;;10.44;74.34;101657.82;1730493;81;21046;-58
2022/11/13 03:17:46;;;;;;;5.23;2.00;;;;;;;10.45;74.36;101654.23;1747114;81;21057;-58
2022/11/13 03:20:31;;;;;;;5.85;1.95;;;;;;;10.44;74.36;101656.50;1738831;81;21038;-57
2022/11/13 03:23:17;;;;;;;5.20;2.00;;;;;;;10.37;74.47;101656.47;1725525;81;21130;-58
2022/11/13 03:26:07;;;;;;;5.45;1.70;;;;;;;10.42;74.42;101657.05;1736844;81;21530;-59
2022/11/13 03:28:53;;;;;;;4.50;1.17;;;;;;;10.38;74.64;101651.11;1723467;81;21109;-57
2022/11/13 03:31:39;;;;;;;3.12;1.27;;;;;;;10.40;74.71;101651.03;1734791;81;21058;-58
2022/11/13 03:34:25;;;;;;;3.97;1.40;;;;;;;10.37;74.77;101649.89;1734084;81;21069;-57
2022/11/13 03:37:10;;;;;;;3.90;1.45;;;;;;;10.37;74.81;101645.94;1742236;81;21231;-58
2022/11/13 03:39:55;;;;;;;3.80;1.40;;;;;;;10.43;74.72;101652.65;1736057;81;21505;-58
2022/11/13 03:42:40;;;;;;;4.08;1.40;;;;;;;10.42;74.74;101649.15;1727541;81;21191;-56
2022/11/13 03:45:25;;;;;;;4.25;1.55;;;;;;;10.43;74.88;101647.38;1727542;82;21038;-57
2022/11/13 03:48:10;;;;;;;4.15;1.57;;;;;;;10.35;75.32;101663.13;1730504;82;21038;-58
2022/11/13 03:50:57;;;;;;;5.00;1.35;;;;;;;10.37;75.36;101656.02;1729561;82;21125;-57
2022/11/13 03:53:42;;;;;;;7.62;1.82;;;;;;;10.38;75.41;101659.48;1719162;82;21584;-58
2022/11/13 03:56:27;;;;;;;3.87;1.50;;;;;;;10.35;75.56;101654.41;1722749;82;21050;-58
2022/11/13 03:59:12;;;;;;;6.50;2.17;;;;;;;10.33;75.78;101656.28;1726572;82;21049;-58
2022/11/13 04:01:57;;;;;;;3.97;1.47;;;;;;;10.33;75.99;101652.34;1720709;82;21034;-58
2022/11/13 04:04:43;;;;;;;6.00;1.40;;;;;;;10.34;76.23;101657.51;1736841;82;21267;-58
2022/11/13 04:07:29;;;;;;;7.25;1.80;;;;;;;10.34;76.23;101657.51;1738607;82;21053;-58
2022/11/13 04:10:14;;;;;;;4.83;1.52;;;;;;;10.33;76.47;101655.80;1734131;82;21077;-59
2022/11/13 04:12:59;;;;;;;4.53;1.70;;;;;;;10.37;76.50;101656.47;1731930;82;21022;-58
2022/11/13 04:15:44;;;;;;;4.65;1.60;;;;;;;10.39;76.11;101659.40;1733365;82;21532;-59
2022/11/13 04:18:31;;;;;;;3.92;1.42;;;;;;;10.44;75.96;101663.53;1730000;82;21183;-58
2022/11/13 04:21:17;;;;;;;3.60;1.30;;;;;;;10.40;76.00;101662.87;1745717;82;22140;-58
2022/11/13 04:24:02;;;;;;;4.30;1.77;;;;;;;10.32;76.30;101665.97;1739696;82;21026;-57
2022/11/13 04:26:47;;;;;;;4.25;1.72;;;;;;;10.32;76.40;101663.78;1718190;83;21548;-58
2022/11/13 04:29:32;;;;;;;4.35;1.60;;;;;;;10.33;76.26;101659.75;1722860;82;21050;-58
2022/11/13 04:32:18;;;;;;;4.50;1.80;;;;;;;10.34;76.38;101667.16;1745288;82;21188;-59
2022/11/13 04:35:04;;;;;;;3.77;1.47;;;;;;;10.25;76.64;101661.11;1694260;83;22658;-58
2022/11/13 04:37:50;;;;;;;3.77;1.50;;;;;;;10.22;76.82;101663.44;1658362;85;21582;-58
2022/11/13 04:40:35;;;;;;;6.28;1.40;;;;;;;10.25;76.81;101655.84;1695568;83;21060;-58
2022/11/13 04:43:21;;;;;;;5.47;1.57;;;;;;;10.25;76.85;101661.95;1652668;84;21027;-58
2022/11/13 04:46:06;;;;;;;4.35;1.42;;;;;;;10.23;76.91;101655.45;1689949;84;21296;-59
2022/11/13 04:48:50;;;;;;;3.92;1.60;;;;;;;10.20;77.08;101657.42;1672099;84;21120;-58
2022/11/13 04:51:36;;;;;;;4.50;1.50;;;;;;;10.23;76.95;101664.66;1677387;84;21148;-58
2022/11/13 04:54:21;;;;;;;4.12;1.57;;;;;;;10.27;76.91;101667.99;1687443;84;21080;-58
2022/11/13 04:57:07;;;;;;;4.67;1.90;;;;;;;10.27;76.91;101672.38;1641539;86;21063;-58
2022/11/13 04:59:52;;;;;;;3.80;1.52;;;;;;;10.23;77.05;101668.61;1666904;84;21222;-58
2022/11/13 05:02:37;;;;;;;4.25;1.15;;;;;;;10.25;77.01;101680.84;1691042;83;21030;-57
2022/11/13 05:05:22;;;;;;;3.92;1.50;;;;;;;10.28;76.87;101681.50;1662756;85;21548;-57
2022/11/13 05:08:07;;;;;;;3.55;1.42;;;;;;;10.30;76.88;101683.57;1652573;84;21553;-57
2022/11/13 05:10:52;;;;;;;4.00;1.60;;;;;;;10.26;77.00;101683.86;1657911;85;21021;-58
2022/11/13 05:13:38;;;;;;;4.90;1.25;;;;;;;10.20;77.20;101685.05;1671256;84;21145;-58
2022/11/13 05:16:24;;;;;;;5.12;1.82;;;;;;;10.25;77.22;101688.73;1651538;86;21058;-57
2022/11/13 05:19:11;;;;;;;4.50;1.67;;;;;;;10.28;77.17;101693.82;1679186;84;20998;-57
2022/11/13 05:21:55;;;;;;;5.78;2.00;;;;;;;10.27;77.29;101697.38;1663128;84;21077;-58
2022/11/13 05:24:40;;;;;;;3.17;1.27;;;;;;;10.26;77.32;101690.44;1656610;84;21073;-57
2022/11/13 05:27:26;;;;;;;7.85;1.80;;;;;;;10.31;77.21;101691.02;1624234;87;21233;-57
2022/11/13 05:30:11;;;;;;;3.42;1.20;;;;;;;10.31;77.22;101696.28;1665615;85;21090;-56
2022/11/13 05:32:56;;;;;;;7.83;1.82;;;;;;;10.29;77.43;101699.00;1669668;85;21117;-57
2022/11/13 05:35:41;;;;;;;3.98;1.50;;;;;;;10.27;77.42;101698.69;1655284;85;21079;-58
2022/11/13 05:38:27;;;;;;;3.70;1.47;;;;;;;10.39;77.16;101700.66;1656058;85;21141;-59
2022/11/13 05:41:19;;;;;;;4.40;1.65;;;;;;;10.43;76.95;101692.95;1667319;85;21174;-58
2022/11/13 05:44:04;;;;;;;5.92;1.90;;;;;;;10.39;77.07;101692.29;1682494;83;21692;-57
2022/11/13 05:46:49;;;;;;;6.97;1.72;;;;;;;10.40;77.34;101693.97;1691658;84;21086;-58
2022/11/13 05:52:25;;;;;;;4.60;2.08;;;;;;;10.37;77.72;101691.98;1845322;76;22641;-93
2022/11/13 05:55:10;;;;;;;4.33;1.70;;;;;;;10.55;77.03;101699.28;1803305;78;21003;-93
2022/11/13 05:57:57;;;;;;;4.78;1.65;;;;;;;10.62;77.08;101701.92;1791335;79;21204;-93
2022/11/13 06:00:43;;;;;;;3.85;1.15;;;;;;;10.68;76.97;101709.46;1818646;77;20995;-93
2022/11/13 06:03:28;;;;;;;4.72;1.47;;;;;;;10.81;76.51;101710.04;1755102;78;21577;-93
2022/11/13 06:06:17;;;;;;;4.37;1.57;;;;;;;10.87;75.77;101707.89;1752552;80;21014;-93
2022/11/13 06:09:03;;;;;;;3.25;1.00;;;;;;;10.91;75.40;101706.78;1752372;80;21061;-93
2022/11/13 06:12:10;;;;;;;;;;;;;;;;;;;;;
2022/11/13 06:15:11;;;;;;;3.30;1.12;;;;;;;10.96;75.13;101710.42;1710208;81;21416;-89
2022/11/13 06:18:04;;;;;;;3.50;1.07;;;;;;;11.06;74.59;101708.09;1708889;83;21062;-88
2022/11/13 06:21:27;;;;;;;5.17;1.40;;;;;;;11.10;74.12;101710.93;1710709;82;21011;-88
2022/11/13 06:24:22;;;;;;;4.03;1.20;;;;;;;11.08;74.00;101706.23;1689898;83;21075;-88
2022/11/13 06:27:17;;;;;;;2.20;0.80;;;;;;;11.09;73.11;101707.42;1666297;84;21932;-96
2022/11/13 06:31:15;;;;;;;3.02;0.82;;;;;;;11.12;72.73;101704.61;1642701;86;21125;-95
2022/11/13 06:37:32;;;;;;;2.17;0.70;;;;;;;11.14;72.40;101713.26;1624230;84;21091;-95
2022/11/13 06:40:57;;;;;;;4.22;1.15;;;;;;;11.20;72.48;101719.96;1676385;82;20964;-95
2022/11/13 06:47:10;;;;;;;;;;;;;;;;;;;;;
2022/11/13 06:50:26;;;;;;;3.87;1.00;;;;;;;11.19;70.54;101704.24;1707905;82;20967;-93
2022/11/13 06:53:28;;;;;;;3.00;0.82;;;;;;;11.14;70.69;101706.67;1693317;84;20903;-87
2022/11/13 06:56:44;;;;;;;;;;;;;;;;;;;;;
2022/11/13 07:02:32;;;;;;;2.72;0.90;;;;;;;11.31;71.06;101706.11;1628629;84;20971;-87
2022/11/13 07:05:31;;;;;;;2.95;0.98;;;;;;;11.28;70.99;101711.12;1668430;83;21122;-87
2022/11/13 07:08:40;;;;;;;3.25;1.10;;;;;;;11.28;70.85;101704.98;1658642;84;21327;-86
2022/11/13 07:12:07;;;;;;;2.75;0.80;;;;;;;11.33;70.72;101709.49;1659356;83;21114;-85
2022/11/13 07:14:54;;;;;;;3.58;1.42;;;;;;;11.38;70.30;101706.58;1559755;87;22085;-85
2022/11/13 07:17:47;;;;;;;3.95;1.00;;;;;;;11.38;69.81;101701.31;1614800;87;21145;-87
2022/11/13 07:20:46;;;;;;;4.42;1.60;;;;;;;11.44;69.46;101703.57;1557698;89;21078;-87
2022/11/13 07:27:14;;;;;;;3.52;1.30;;;;;;;11.49;69.01;101701.01;1552387;90;21001;-93
2022/11/13 07:30:28;;;;;;;3.80;1.30;;;;;;;11.49;69.02;101697.05;1563567;87;21577;-88
2022/11/13 07:33:30;;;;;;;4.25;1.52;;;;;;;11.59;68.79;101697.81;1623636;85;21109;-85
2022/11/13 07:37:18;;;;;;;;;;;;;;;;;;;;;
2022/11/13 07:40:20;;;;;;;5.53;1.80;;;;;;;11.69;68.29;101699.75;1638083;86;21048;-86
2022/11/13 07:43:17;;;;;;;5.67;1.42;;;;;;;11.70;68.38;101688.27;1608442;87;21482;-86
2022/11/13 07:49:21;;;;;;;4.00;1.72;;;;;;;11.78;68.00;101700.11;1547008;89;21433;-86
2022/11/13 07:52:25;;;;;;;4.78;2.02;;;;;;;11.78;68.05;101690.87;1513729;89;21111;-88
2022/11/13 07:55:21;;;;;;;4.20;1.62;;;;;;;11.79;67.92;101691.27;1683771;83;21549;-85
2022/11/13 07:58:21;;;;;;;4.67;2.27;;;;;;;11.85;67.87;101698.76;1679885;84;20928;-89
2022/11/13 08:05:29;;;;;;;5.08;1.62;;;;;;;11.81;67.56;101698.59;1670384;83;21303;-87
2022/11/13 08:08:54;;;;;;;;;;;;;;;;;;;;;
2022/11/13 08:15:13;;;;;;;4.33;1.95;;;;;;;11.71;67.74;101707.56;1683700;84;21160;-90
2022/11/13 08:18:22;;;;;;;4.37;1.70;;;;;;;11.69;67.80;101708.98;1617376;87;21139;-90
2022/11/13 08:21:20;;;;;;;;;;;;;;;;;;;;;
2022/11/13 08:23:58;;;;;;;4.15;2.20;;;;;;;11.75;67.82;101709.08;1601206;84;21631;-87
2022/11/13 08:26:58;;;;;;;4.37;1.98;;;;;;;11.76;67.89;101712.55;1671742;83;21027;-90
2022/11/13 08:29:54;;;;;;;5.40;2.33;;;;;;;11.79;67.88;101712.36;1671752;83;21147;-89
2022/11/13 08:33:03;;;;;;;5.72;2.98;;;;;;;11.89;67.71;101713.45;1663216;84;21136;-90
2022/11/13 08:36:12;;;;;;;4.83;2.42;;;;;;;11.89;67.48;101712.14;1695501;84;21052;-91
2022/11/13 08:39:17;;;;;;;;;;;;;;;;;;;;;
2022/11/13 08:42:13;;;;;;;4.37;2.12;;;;;;;11.94;67.44;101712.72;1658305;84;21003;-91
2022/11/13 08:45:27;;;;;;;6.03;2.70;;;;;;;11.96;67.53;101712.14;1667390;83;20986;-92
2022/11/13 08:48:04;;;;;;;4.87;2.52;;;;;;;11.99;67.43;101714.59;1667813;84;21244;-91
2022/11/13 08:51:17;;;;;;;5.28;2.60;;;;;;;12.02;67.43;101702.52;1654776;83;21086;-91
2022/11/13 08:54:21;;;;;;;;;;;;;;;;;;;;;
2022/11/13 08:57:09;;;;;;;5.62;2.80;;;;;;;12.15;66.93;101692.47;1664624;83;21134;-91
2022/11/13 09:02:59;;;;;;;5.15;2.55;;;;;;;12.18;66.82;101694.91;1732940;81;21144;-50
2022/11/13 09:05:44;;;;;;;;;;;;;;;12.28;66.72;101693.36;1749311;80;21496;-50
2022/11/13 09:08:30;;;;;;;6.72;3.45;;;;;;;12.34;66.23;101689.45;1745490;81;20450;-50
2022/11/13 09:11:16;;;;;;;6.08;3.17;;;;;;;12.33;66.05;101688.62;1742183;80;21025;-55
2022/11/13 09:14:01;;;;;;;6.15;3.08;;;;;;;12.32;66.18;101677.67;1747401;80;21121;-51
2022/11/13 09:16:47;;;;;;;6.25;2.33;;;;;;;12.37;66.21;101677.37;1758523;80;21219;-49
2022/11/13 09:19:32;;;;;;;5.15;2.85;;;;;;;12.48;65.61;101680.14;1761867;80;21048;-50
2022/11/13 09:22:18;;;;;;;6.47;2.90;;;;;;;12.47;65.19;101671.84;1749086;80;20987;-50
2022/11/13 09:25:04;;;;;;;6.37;3.55;;;;;;;12.49;65.21;101679.66;1708593;82;21038;-50
2022/11/13 09:27:58;;;;;;;5.72;2.62;;;;;;;12.51;65.27;101676.44;1723290;81;21603;-51
2022/11/13 09:30:43;;;;;;;5.03;2.87;;;;;;;12.55;65.48;101677.45;1705632;82;21355;-51
2022/11/13 09:33:30;;;;;;;6.55;3.52;;;;;;;12.63;65.26;101680.42;1702562;82;21114;-50
2022/11/13 09:36:16;;;;;;;6.37;3.27;;;;;;;12.68;65.06;101677.96;1733528;80;21058;-50
2022/11/13 09:39:03;;;;;;;5.70;3.42;;;;;;;12.72;64.55;101679.43;1734555;80;21116;-48
2022/11/13 09:42:02;;;;;;;5.85;3.50;;;;;;;12.72;64.27;101677.63;1706345;82;21551;-49
2022/11/13 09:44:51;;;;;;;5.17;2.65;;;;;;;12.73;64.30;101676.69;1736723;80;21283;-48
2022/11/13 09:47:44;;;;;;;5.58;2.60;;;;;;;12.83;64.29;101663.70;1745017;81;21069;-53
2022/11/13 09:50:30;;;;;;;5.20;2.90;;;;;;;12.93;63.82;101662.59;1756973;80;21359;-53
2022/11/13 09:53:15;;;;;;;5.20;2.52;;;;;;;12.93;63.66;101669.19;1742957;80;21088;-50
2022/11/13 09:56:36;;;;;;;5.78;2.72;;;;;;;12.94;63.42;101661.62;1734650;82;21045;-49
2022/11/13 09:59:54;;;;;;;4.53;1.85;;;;;;;12.92;63.16;101656.92;1740985;81;21120;-51
2022/11/13 10:03:15;;;;;;;7.83;2.27;;;;;;;12.88;63.04;101653.66;1746460;80;21021;-51
2022/11/13 10:07:14;;;;;;;5.78;2.77;;;;;;;12.85;63.61;101659.63;1793595;78;22272;-64
2022/11/13 10:10:19;;;;;;;4.60;2.40;;;;;;;12.93;63.14;101659.95;1773190;80;20900;-64
2022/11/13 10:13:13;;;;;;;5.08;2.58;;;;;;;12.96;62.84;101664.98;1763567;80;21121;-64
2022/11/13 10:16:07;;;;;;;5.03;2.30;;;;;;;12.95;62.71;101654.91;1782578;80;20959;-62
2022/11/13 10:18:53;;;;;;;4.47;2.00;;;;;;;12.96;62.84;101651.78;1715341;83;21051;-62
2022/11/13 10:21:46;;;;;;;4.97;2.67;;;;;;;13.04;62.83;101646.80;1734466;80;20991;-61
2022/11/13 10:24:41;;;;;;;6.17;2.45;;;;;;;13.09;62.56;101649.97;1705968;83;21055;-66
2022/11/13 10:27:27;;;;;;;4.90;2.10;;;;;;;13.11;62.62;101648.09;1739896;81;21793;-63
2022/11/13 10:30:17;;;;;;;4.17;1.83;;;;;;;13.16;62.82;101638.03;1715919;82;20974;-64
2022/11/13 10:33:07;;;;;;;4.03;1.98;;;;;;;13.18;62.55;101636.61;1714264;82;21043;-63
2022/11/13 10:36:16;;;;;;;4.30;1.70;;;;;;;13.25;63.14;101633.05;1717484;82;21073;-61
2022/11/13 10:39:06;;;;;;;4.72;2.17;;;;;;;13.41;62.34;101636.28;1706958;82;20983;-62
2022/11/13 10:41:55;;;;;;;5.20;2.17;;;;;;;13.45;61.77;101637.77;1716711;82;21285;-61
2022/11/13 10:44:41;;;;;;;4.97;1.80;;;;;;;13.46;61.97;101633.32;1724503;82;21050;-63
2022/11/13 10:47:32;;;;;;;4.97;2.30;;;;;;;13.44;61.84;101629.95;1671530;82;21045;-63
2022/11/13 10:50:27;;;;;;;5.25;2.02;;;;;;;13.48;61.52;101636.69;1717589;82;21054;-65
2022/11/13 10:53:19;;;;;;;5.05;1.60;;;;;;;13.52;61.71;101638.17;1715162;82;21070;-61
2022/11/13 10:56:29;;;;;;;4.15;1.87;;;;;;;13.63;61.31;101638.70;1707877;82;21130;-61
2022/11/13 10:59:18;;;;;;;4.17;1.47;;;;;;;13.70;61.02;101643.90;1655708;84;21114;-63
2022/11/13 11:02:21;;;;;;;5.83;1.77;;;;;;;13.69;61.09;101640.42;1662553;86;21090;-61
2022/11/13 11:05:17;;;;;;;4.80;1.52;;;;;;;13.67;60.85;101630.44;1664131;84;21090;-62
2022/11/13 11:08:09;;;;;;;3.80;1.52;;;;;;;13.60;60.55;101628.34;1653965;84;21086;-64
2022/11/13 11:14:28;;;;;;;4.58;1.62;;;;;;;13.54;61.29;101626.52;1617350;86;21062;-62
2022/11/13 11:17:15;;;;;;;4.78;1.55;;;;;;;13.57;61.12;101620.17;1659219;84;21177;-63
2022/11/13 11:20:11;;;;;;;4.70;2.20;;;;;;;13.55;60.86;101604.91;1668723;83;21130;-63
2022/11/13 11:23:17;;;;;;;4.00;1.65;;;;;;;13.54;61.24;101616.42;1640442;85;21228;-63
2022/11/13 11:26:27;;;;;;;4.72;1.70;;;;;;;13.49;60.95;101613.27;1674091;85;21575;-63
2022/11/13 11:29:21;;;;;;;6.78;2.92;;;;;;;13.92;60.48;101606.98;1680830;82;21051;-63
2022/11/13 11:32:33;;;;;;;5.30;2.17;;;;;;;13.82;60.47;101610.41;1757253;80;21007;-62
2022/11/13 11:35:26;;;;;;;6.53;1.90;;;;;;;14.07;59.61;101602.80;1760132;80;21030;-62
2022/11/13 11:38:32;;;;;;;4.67;2.00;;;;;;;14.03;59.87;101606.66;1774808;80;21006;-62
2022/11/13 11:41:19;;;;;;;4.67;1.47;;;;;;;13.99;59.79;101602.56;1763591;80;21144;-62
2022/11/13 11:44:15;;;;;;;4.37;1.50;;;;;;;14.00;59.85;101601.09;1765603;80;21027;-64
2022/11/13 11:47:02;;;;;;;3.80;1.52;;;;;;;14.04;59.22;101597.77;1705632;82;21472;-61
2022/11/13 11:49:46;;;;;;;5.25;2.08;;;;;;;14.03;59.29;101588.95;1771972;80;21485;-62
2022/11/13 11:52:40;;;;;;;3.77;1.35;;;;;;;14.03;59.21;101596.06;1776390;80;21423;-63
2022/11/13 11:55:40;;;;;;;4.28;1.50;;;;;;;13.92;59.10;101591.59;1775446;80;22205;-63
2022/11/13 11:58:46;;;;;;;5.17;1.50;;;;;;;13.86;59.45;101587.58;1704222;83;21041;-62
2022/11/13 12:01:58;;;;;;;5.83;1.70;;;;;;;13.89;59.49;101590.00;1762518;80;21117;-61
2022/11/13 12:04:53;;;;;;;6.45;1.98;;;;;;;13.89;59.24;101593.14;1769334;80;21046;-62
2022/11/13 12:08:05;;;;;;;5.03;1.82;;;;;;;13.84;59.53;101589.51;1769827;80;21026;-62
2022/11/13 12:10:59;;;;;;;4.50;2.00;;;;;;;13.88;59.11;101579.53;1755267;80;21264;-62
2022/11/13 12:14:24;;;;;;;5.95;1.60;;;;;;;13.96;59.05;101594.36;1754979;80;21067;-61
2022/11/13 12:17:36;;;;;;;5.72;2.12;;;;;;;13.99;58.76;101590.66;1758293;80;21544;-62
2022/11/13 12:20:45;;;;;;;5.53;2.10;;;;;;;14.02;58.84;101585.97;1746578;80;21054;-63
2022/11/13 12:24:09;;;;;;;4.17;1.67;;;;;;;14.16;58.67;101590.70;1750393;80;20991;-62
2022/11/13 12:27:17;;;;;;;4.45;1.85;;;;;;;14.34;58.12;101587.10;1701207;82;21159;-61
2022/11/13 12:30:22;;;;;;;4.83;1.55;;;;;;;14.80;56.26;101592.84;1704411;83;21758;-62
2022/11/13 12:33:30;;;;;;;3.45;1.40;;;;;;;14.99;55.71;101590.41;1756022;80;21031;-62
2022/11/13 12:36:15;;;;;;;5.08;1.52;;;;;;;15.05;55.13;101594.39;1758918;80;21070;-61
2022/11/13 12:39:41;;;;;;;3.53;1.60;;;;;;;16.09;53.00;101604.93;1747705;80;21110;-61
2022/11/13 12:42:48;;;;;;;4.30;1.47;;;;;;;17.00;51.64;101591.02;1759009;80;22344;-62
2022/11/13 12:45:42;;;;;;;3.33;1.52;;;;;;;17.02;50.04;101602.35;1758229;80;21027;-61
2022/11/13 12:48:39;;;;;;;3.70;1.45;;;;;;;16.57;50.90;101594.72;1697077;83;21120;-61
2022/11/13 12:51:24;;;;;;;6.45;1.47;;;;;;;16.30;51.51;101594.78;1754040;80;21003;-62
2022/11/13 12:54:10;;;;;;;3.40;1.32;;;;;;;16.32;51.65;101598.14;1761258;80;21575;-62
2022/11/13 12:57:20;;;;;;;;;;;;;;;15.74;52.84;101588.77;1761147;80;21252;-62
2022/11/13 13:00:27;;;;;;;6.00;1.62;;;;;;;15.77;53.25;101596.52;1752179;80;20178;-62
2022/11/13 13:03:48;;;;;;;3.77;1.50;;;;;;;16.51;51.67;101596.11;1745259;80;21655;-62
2022/11/13 13:07:05;;;;;;;4.28;1.92;;;;;;;16.11;52.15;101596.84;1761195;80;21078;-61
2022/11/13 13:10:33;;;;;;;8.30;1.52;;;;;;;15.71;52.72;101604.94;1698895;80;65267;-52
2022/11/13 13:13:29;;;;;;;4.65;1.80;;;;;;;15.25;53.75;101591.47;1688882;83;21313;-50
2022/11/13 13:16:28;;;;;;;5.72;2.35;;;;;;;15.29;54.15;101595.55;1677746;84;21286;-52
2022/11/13 13:19:30;;;;;;;5.53;2.33;;;;;;;14.94;54.83;101593.07;1674924;83;21086;-51
2022/11/13 13:22:31;;;;;;;5.33;2.08;;;;;;;14.73;55.12;101592.48;1679438;83;21089;-50
2022/11/13 13:25:26;;;;;;;7.75;2.37;;;;;;;14.73;55.46;101585.86;1680098;83;21702;-52
2022/11/13 13:28:20;;;;;;;4.15;1.65;;;;;;;14.54;55.67;101577.16;1679335;83;21270;-52
2022/11/13 13:31:28;;;;;;;6.85;2.65;;;;;;;14.57;55.66;101581.36;1678529;83;21478;-51
2022/11/13 13:34:55;;;;;;;5.97;2.60;;;;;;;14.60;55.50;101581.98;1680619;84;21576;-50
2022/11/13 13:37:53;;;;;;;5.37;2.77;;;;;;;14.73;55.11;101575.26;1677047;83;21137;-52
2022/11/13 13:41:11;;;;;;;6.05;2.80;;;;;;;14.96;54.97;101574.77;1684935;84;21041;-51
2022/11/13 13:44:07;;;;;;;6.67;4.17;;;;;;;15.01;54.57;101571.27;1682790;83;21125;-51
2022/11/13 13:46:52;;;;;;;5.45;2.92;;;;;;;14.66;55.14;101580.20;1691918;82;21041;-51
2022/11/13 13:49:37;;;;;;;5.80;2.77;;;;;;;14.26;56.08;101566.53;1668760;84;21073;-50
2022/11/13 13:52:32;;;;;;;6.75;3.52;;;;;;;13.89;57.17;101574.12;1701218;82;21125;-51
2022/11/13 13:55:28;;;;;;;6.28;2.08;;;;;;;13.60;58.09;101569.70;1682645;84;21075;-51
2022/11/13 13:58:17;;;;;;;6.25;2.20;;;;;;;13.34;59.08;101574.25;1684388;82;22104;-52
2022/11/13 14:01:05;;;;;;;7.12;2.60;;;;;;;13.14;59.70;101575.16;1689092;84;21066;-50
2022/11/13 14:04:15;;;;;;;7.30;2.65;;;;;;;13.04;59.97;101571.98;1689404;82;21693;-50
2022/11/13 14:07:01;;;;;;;5.80;2.00;;;;;;;12.90;60.24;101567.20;1695835;82;21516;-52
2022/11/13 14:12:22;;;;;;;6.15;3.00;;;;;;;12.43;61.83;101577.50;1861539;76;22663;-71
2022/11/13 14:15:31;;;;;;;7.37;2.95;;;;;;;12.43;61.83;101575.34;1821515;77;21001;-72
2022/11/13 14:18:16;;;;;;;5.90;3.02;;;;;;;12.35;62.26;101580.30;1816907;77;21154;-71